createdAt,value
2019-02-11T00:02:00.693Z,3.86
2019-02-11T00:04:06.984Z,3.80
2019-02-11T00:06:13.406Z,3.86
2019-02-11T00:08:19.773Z,3.84
2019-02-11T00:10:26.110Z,3.92
2019-02-11T00:12:32.547Z,3.92
2019-02-11T00:14:38.909Z,3.90
2019-02-11T00:16:45.488Z,3.91
2019-02-11T00:18:51.857Z,3.97
2019-02-11T00:20:58.178Z,4.00
2019-02-11T00:23:04.471Z,3.99
2019-02-11T00:25:10.850Z,4.02
2019-02-11T00:27:17.099Z,4.04
2019-02-11T00:29:23.332Z,4.02
2019-02-11T00:31:29.781Z,4.07
2019-02-11T00:33:36.339Z,4.09
2019-02-11T00:35:42.629Z,4.07
2019-02-11T00:37:49.043Z,4.08
2019-02-11T00:39:55.255Z,4.10
2019-02-11T00:42:01.685Z,4.05
2019-02-11T00:44:08.232Z,4.10
2019-02-11T00:46:14.592Z,4.20
2019-02-11T00:48:20.949Z,4.20
2019-02-11T00:50:27.214Z,4.20
2019-02-11T00:52:33.451Z,4.19
2019-02-11T00:54:39.645Z,4.18
2019-02-11T00:56:45.905Z,4.21
2019-02-11T00:58:52.123Z,4.24
2019-02-11T01:00:58.492Z,4.27
2019-02-11T01:03:04.885Z,4.36
2019-02-11T01:05:12.123Z,4.32
2019-02-11T01:07:18.332Z,4.36
2019-02-11T01:09:24.723Z,4.34
2019-02-11T01:11:31.206Z,4.37
2019-02-11T01:13:37.590Z,4.36
2019-02-11T01:15:43.901Z,4.40
2019-02-11T01:17:50.221Z,4.41
2019-02-11T01:19:56.439Z,4.42
2019-02-11T01:22:02.743Z,4.43
2019-02-11T01:24:08.906Z,4.45
2019-02-11T01:26:15.131Z,4.44
2019-02-11T01:28:21.449Z,4.45
2019-02-11T01:36:20.136Z,4.46
2019-02-11T01:38:26.365Z,4.48
2019-02-11T01:40:32.867Z,4.45
2019-02-11T01:42:39.102Z,4.44
2019-02-11T01:44:45.419Z,4.45
2019-02-11T01:46:51.867Z,4.44
2019-02-11T01:48:58.240Z,4.46
2019-02-11T01:51:04.476Z,4.46
2019-02-11T01:53:11.002Z,4.42
2019-02-11T01:55:17.365Z,4.41
2019-02-11T01:57:23.662Z,4.37
2019-02-11T01:59:29.915Z,4.39
2019-02-11T02:01:36.143Z,4.43
2019-02-11T02:03:42.364Z,4.41
2019-02-11T02:05:48.824Z,4.44
2019-02-11T02:07:55.199Z,4.44
2019-02-11T02:10:03.431Z,4.41
2019-02-11T02:12:09.940Z,4.45
2019-02-11T02:14:16.169Z,4.50
2019-02-11T02:16:22.456Z,4.46
2019-02-11T02:18:28.780Z,4.50
2019-02-11T02:20:35.079Z,4.52
2019-02-11T02:22:41.383Z,4.56
2019-02-11T02:24:48.014Z,4.52
2019-02-11T02:26:54.231Z,4.57
2019-02-11T02:29:00.519Z,4.60
2019-02-11T02:31:06.997Z,4.56
2019-02-11T02:33:13.321Z,4.54
2019-02-11T02:35:19.611Z,4.55
2019-02-11T02:37:25.993Z,4.55
2019-02-11T02:39:32.345Z,4.57
2019-02-11T02:41:38.742Z,4.54
2019-02-11T02:43:54.944Z,4.48
2019-02-11T02:45:53.188Z,4.49
2019-02-11T02:47:59.605Z,4.40
2019-02-11T02:50:09.105Z,4.37
2019-02-11T02:52:15.279Z,4.33
2019-02-11T02:54:21.703Z,4.33
2019-02-11T02:56:28.074Z,4.35
2019-02-11T02:58:34.507Z,4.33
2019-02-11T03:00:40.651Z,4.26
2019-02-11T03:02:46.902Z,4.18
2019-02-11T03:04:53.191Z,4.11
2019-02-11T03:06:59.625Z,4.10
2019-02-11T03:09:07.173Z,4.11
2019-02-11T03:11:13.846Z,4.04
2019-02-11T03:13:20.136Z,4.09
2019-02-11T03:15:26.384Z,4.06
2019-02-11T03:17:32.811Z,4.08
2019-02-11T03:19:39.093Z,3.99
2019-02-11T03:21:45.476Z,3.95
2019-02-11T03:23:51.730Z,3.94
2019-02-11T03:25:58.034Z,3.91
2019-02-11T03:28:04.348Z,3.93
2019-02-11T03:30:11.066Z,3.91
2019-02-11T03:32:17.419Z,3.93
2019-02-11T03:34:23.593Z,3.90
2019-02-11T03:36:29.782Z,3.92
2019-02-11T03:38:36.310Z,3.91
2019-02-11T03:40:42.625Z,3.84
2019-02-11T03:42:48.941Z,3.88
2019-02-11T03:44:55.515Z,3.86
2019-02-11T03:47:01.878Z,3.86
2019-02-11T03:49:08.172Z,3.87
2019-02-11T03:51:14.527Z,3.85
2019-02-11T03:53:20.738Z,3.89
2019-02-11T03:55:28.608Z,3.91
2019-02-11T03:57:35.175Z,3.84
2019-02-11T03:59:41.346Z,3.87
2019-02-11T04:01:47.973Z,3.88
2019-02-11T04:03:54.448Z,3.90
2019-02-11T04:06:00.873Z,3.92
2019-02-11T04:08:07.162Z,3.91
2019-02-11T04:10:13.410Z,3.91
2019-02-11T04:12:19.753Z,3.91
2019-02-11T04:14:25.908Z,3.93
2019-02-11T04:16:32.204Z,3.94
2019-02-11T04:18:38.516Z,4.00
2019-02-11T04:20:44.752Z,3.99
2019-02-11T04:22:51.217Z,4.04
2019-02-11T04:24:57.530Z,4.09
2019-02-11T04:27:03.688Z,4.17
2019-02-11T04:29:10.126Z,4.15
2019-02-11T04:31:16.568Z,4.15
2019-02-11T04:33:22.815Z,4.19
2019-02-11T04:35:29.181Z,4.22
2019-02-11T04:37:35.423Z,4.24
2019-02-11T04:39:42.025Z,4.24
2019-02-11T04:41:48.312Z,4.21
2019-02-11T04:43:54.888Z,4.23
2019-02-11T04:46:01.500Z,4.16
2019-02-11T04:48:08.060Z,4.13
2019-02-11T04:50:14.563Z,4.15
2019-02-11T04:52:20.986Z,4.15
2019-02-11T04:54:27.294Z,4.21
2019-02-11T04:56:33.693Z,4.21
2019-02-11T04:58:40.184Z,4.16
2019-02-11T05:00:46.618Z,4.19
2019-02-11T05:02:53.232Z,4.22
2019-02-11T05:04:59.720Z,4.20
2019-02-11T05:07:05.878Z,4.24
2019-02-11T05:09:12.372Z,4.22
2019-02-11T05:11:18.729Z,4.21
2019-02-11T05:13:24.965Z,4.22
2019-02-11T05:15:31.388Z,4.22
2019-02-11T05:17:37.609Z,4.26
2019-02-11T05:19:44.034Z,4.28
2019-02-11T05:21:50.360Z,4.30
2019-02-11T05:23:56.720Z,4.28
2019-02-11T05:26:03.163Z,4.31
2019-02-11T05:28:09.683Z,4.30
2019-02-11T05:30:15.899Z,4.25
2019-02-11T05:32:22.530Z,4.24
2019-02-11T05:34:28.979Z,4.26
2019-02-11T05:36:35.348Z,4.26
2019-02-11T05:38:41.904Z,4.27
2019-02-11T05:40:48.224Z,4.30
2019-02-11T05:42:54.434Z,4.30
2019-02-11T05:45:00.583Z,4.28
2019-02-11T05:47:07.719Z,4.29
2019-02-11T05:49:14.110Z,4.29
2019-02-11T05:51:20.327Z,4.30
2019-02-11T05:53:26.588Z,4.32
2019-02-11T05:55:32.789Z,4.29
2019-02-11T05:57:39.002Z,4.32
2019-02-11T05:59:45.246Z,4.34
2019-02-11T06:01:51.543Z,4.34
2019-02-11T06:03:57.899Z,4.34
2019-02-11T06:06:04.395Z,4.36
2019-02-11T06:08:10.704Z,4.39
2019-02-11T06:10:16.915Z,4.36
2019-02-11T06:12:23.559Z,4.39
2019-02-11T06:14:29.916Z,4.39
2019-02-11T06:16:36.080Z,4.43
2019-02-11T06:18:42.583Z,4.47
2019-02-11T06:20:48.857Z,4.45
2019-02-11T06:22:55.599Z,4.47
2019-02-11T06:25:02.001Z,4.46
2019-02-11T06:27:08.324Z,4.45
2019-02-11T06:29:14.827Z,4.45
2019-02-11T06:31:21.213Z,4.44
2019-02-11T06:33:27.535Z,4.48
2019-02-11T06:35:33.756Z,4.50
2019-02-11T06:37:40.248Z,4.47
2019-02-11T06:39:46.514Z,4.53
2019-02-11T06:41:52.805Z,4.53
2019-02-11T06:43:59.119Z,4.56
2019-02-11T06:46:05.591Z,4.52
2019-02-11T06:48:11.882Z,4.54
2019-02-11T06:50:18.199Z,4.64
2019-02-11T06:52:24.493Z,4.81
2019-02-11T06:54:31.041Z,4.74
2019-02-11T06:56:37.337Z,4.75
2019-02-11T06:58:43.727Z,4.71
2019-02-11T07:00:49.972Z,4.66
2019-02-11T07:02:56.605Z,4.76
2019-02-11T07:05:02.823Z,4.75
2019-02-11T07:07:09.111Z,4.78
2019-02-11T07:09:15.463Z,5.05
2019-02-11T07:11:21.747Z,4.74
2019-02-11T07:13:28.141Z,4.97
2019-02-11T07:15:34.394Z,4.84
2019-02-11T07:17:40.662Z,5.07
2019-02-11T07:19:46.878Z,4.87
2019-02-11T07:21:53.301Z,4.84
2019-02-11T07:24:00.587Z,4.92
2019-02-11T07:26:06.961Z,5.16
2019-02-11T07:28:13.278Z,5.32
2019-02-11T07:30:19.728Z,5.04
2019-02-11T07:32:25.948Z,4.90
2019-02-11T07:34:32.260Z,4.89
2019-02-11T07:36:38.612Z,5.01
2019-02-11T07:38:44.911Z,4.89
2019-02-11T07:40:51.230Z,5.05
2019-02-11T07:43:16.120Z,4.85
2019-02-11T07:45:36.138Z,4.93
2019-02-11T07:47:42.592Z,4.96
2019-02-11T07:49:49.756Z,4.91
2019-02-11T07:51:56.109Z,4.97
2019-02-11T07:54:02.576Z,4.93
2019-02-11T07:56:08.869Z,4.97
2019-02-11T07:58:15.233Z,5.15
2019-02-11T08:00:21.555Z,5.17
2019-02-11T08:02:27.885Z,5.19
2019-02-11T08:04:34.351Z,5.41
2019-02-11T08:06:40.656Z,5.29
2019-02-11T08:08:46.949Z,5.42
2019-02-11T08:10:54.486Z,5.77
2019-02-11T08:13:00.822Z,5.54
2019-02-11T08:15:09.551Z,5.49
2019-02-11T08:17:15.886Z,5.48
2019-02-11T08:19:22.159Z,5.61
2019-02-11T08:21:28.724Z,5.71
2019-02-11T08:23:34.938Z,5.57
2019-02-11T08:25:41.321Z,5.68
2019-02-11T08:27:47.532Z,5.94
2019-02-11T08:29:53.912Z,5.65
2019-02-11T08:32:00.308Z,5.67
2019-02-11T08:34:06.531Z,5.71
2019-02-11T08:36:14.408Z,5.68
2019-02-11T08:38:20.945Z,5.78
2019-02-11T08:40:27.575Z,5.83
2019-02-11T08:42:33.875Z,5.87
2019-02-11T08:44:40.156Z,5.78
2019-02-11T08:46:46.382Z,5.86
2019-02-11T08:48:52.748Z,5.98
2019-02-11T08:50:59.231Z,6.08
2019-02-11T08:53:05.598Z,6.15
2019-02-11T08:55:11.818Z,6.02
2019-02-11T08:57:18.224Z,6.15
2019-02-11T08:59:24.444Z,6.22
2019-02-11T09:01:30.741Z,5.88
2019-02-11T09:03:37.073Z,5.89
2019-02-11T09:05:43.480Z,5.98
2019-02-11T09:07:49.950Z,5.96
2019-02-11T09:09:56.397Z,6.00
2019-02-11T09:12:02.951Z,5.98
2019-02-11T09:14:09.226Z,5.96
2019-02-11T09:16:15.488Z,6.01
2019-02-11T09:18:21.861Z,6.07
2019-02-11T09:20:28.013Z,5.94
2019-02-11T09:22:34.318Z,5.87
2019-02-11T09:24:40.617Z,5.95
2019-02-11T09:26:46.908Z,6.02
2019-02-11T09:28:53.195Z,5.93
2019-02-11T09:30:59.409Z,6.15
2019-02-11T09:33:05.553Z,6.16
2019-02-11T09:35:11.918Z,6.50
2019-02-11T09:37:18.266Z,6.54
2019-02-11T09:39:24.611Z,6.49
2019-02-11T09:41:32.214Z,6.47
2019-02-11T09:43:38.747Z,6.57
2019-02-11T09:45:45.103Z,6.44
2019-02-11T09:47:51.282Z,6.78
2019-02-11T09:50:17.472Z,6.72
2019-02-11T09:52:23.679Z,6.54
2019-02-11T09:54:30.023Z,6.55
2019-02-11T09:56:36.398Z,6.57
2019-02-11T09:58:42.716Z,6.82
2019-02-11T10:00:49.032Z,6.70
2019-02-11T10:02:55.175Z,6.57
2019-02-11T10:05:02.456Z,6.74
2019-02-11T10:07:08.625Z,6.73
2019-02-11T10:09:14.849Z,6.91
2019-02-11T10:11:21.278Z,6.74
2019-02-11T10:13:27.666Z,6.88
2019-02-11T10:15:34.086Z,6.85
2019-02-11T10:17:40.244Z,7.19
2019-02-11T10:19:46.570Z,7.12
2019-02-11T10:21:52.784Z,7.13
2019-02-11T10:23:58.935Z,7.02
2019-02-11T10:26:05.238Z,7.19
2019-02-11T10:28:12.830Z,7.27
2019-02-11T10:30:19.279Z,7.38
2019-02-11T10:32:25.741Z,7.47
2019-02-11T10:34:32.179Z,7.44
2019-02-11T10:36:38.601Z,7.36
2019-02-11T10:38:44.836Z,7.12
2019-02-11T10:40:51.184Z,7.36
2019-02-11T10:42:57.402Z,7.44
2019-02-11T10:45:03.886Z,7.43
2019-02-11T10:47:10.185Z,7.15
2019-02-11T10:49:16.539Z,7.20
2019-02-11T10:51:22.947Z,7.12
2019-02-11T10:53:29.232Z,7.31
2019-02-11T10:55:35.616Z,7.31
2019-02-11T10:57:41.991Z,7.32
2019-02-11T10:59:48.340Z,7.25
2019-02-11T11:01:54.566Z,7.60
2019-02-11T11:04:00.958Z,7.54
2019-02-11T11:06:07.260Z,7.33
2019-02-11T11:08:13.568Z,7.42
2019-02-11T11:10:37.906Z,7.28
2019-02-11T11:12:44.311Z,7.48
2019-02-11T11:14:50.518Z,7.29
2019-02-11T11:16:56.821Z,7.34
2019-02-11T11:19:03.227Z,7.61
2019-02-11T11:21:09.587Z,7.53
2019-02-11T11:23:16.901Z,7.40
2019-02-11T11:25:23.183Z,7.57
2019-02-11T11:27:29.393Z,7.67
2019-02-11T11:29:35.703Z,7.78
2019-02-11T11:31:41.933Z,7.73
2019-02-11T11:33:48.169Z,7.95
2019-02-11T11:35:56.044Z,8.09
2019-02-11T11:38:02.534Z,7.82
2019-02-11T11:40:22.236Z,7.52
2019-02-11T11:42:29.660Z,7.75
2019-02-11T11:44:35.947Z,7.73
2019-02-11T11:46:47.094Z,7.61
2019-02-11T11:48:50.642Z,7.67
2019-02-11T11:50:56.922Z,7.74
2019-02-11T11:53:03.295Z,8.21
2019-02-11T11:55:13.838Z,7.95
2019-02-11T11:57:20.290Z,7.62
2019-02-11T11:59:26.533Z,7.46
2019-02-11T12:01:32.811Z,7.44
2019-02-11T12:03:39.029Z,7.57
2019-02-11T12:05:45.244Z,7.71
2019-02-11T12:07:51.620Z,7.74
2019-02-11T12:09:57.828Z,7.79
2019-02-11T12:12:04.148Z,7.82
2019-02-11T12:14:10.409Z,7.80
2019-02-11T12:16:16.779Z,7.58
2019-02-11T12:18:22.968Z,7.71
2019-02-11T12:20:33.019Z,7.80
2019-02-11T12:22:37.370Z,7.78
2019-02-11T12:24:43.705Z,7.81
2019-02-11T12:26:50.013Z,7.74
2019-02-11T12:28:56.314Z,7.71
2019-02-11T12:31:02.604Z,7.78
2019-02-11T12:33:08.916Z,7.84
2019-02-11T12:35:15.379Z,7.74
2019-02-11T12:37:21.775Z,7.65
2019-02-11T12:39:28.096Z,7.71
2019-02-11T12:41:34.386Z,7.65
2019-02-11T12:43:40.741Z,7.61
2019-02-11T12:45:48.136Z,7.55
2019-02-11T12:47:54.387Z,7.44
2019-02-11T12:50:00.717Z,7.30
2019-02-11T12:52:07.799Z,7.29
2019-02-11T12:54:14.051Z,7.22
2019-02-11T12:56:20.509Z,7.22
2019-02-11T12:58:28.308Z,7.22
2019-02-11T13:00:34.458Z,7.14
2019-02-11T13:02:40.738Z,7.24
2019-02-11T13:04:47.215Z,7.26
2019-02-11T13:06:53.506Z,7.14
2019-02-11T13:08:59.891Z,7.07
2019-02-11T13:11:06.405Z,7.00
2019-02-11T13:13:12.610Z,7.09
2019-02-11T13:15:59.009Z,6.98
2019-02-11T13:17:33.809Z,7.05
2019-02-11T13:19:35.900Z,7.01
2019-02-11T13:21:42.146Z,7.00
2019-02-11T13:23:48.627Z,6.97
2019-02-11T13:25:54.922Z,6.83
2019-02-11T13:28:01.222Z,6.71
2019-02-11T13:30:16.990Z,6.62
2019-02-11T13:32:23.518Z,6.40
2019-02-11T13:34:30.011Z,6.10
2019-02-11T13:36:36.398Z,5.89
2019-02-11T13:38:42.677Z,5.82
2019-02-11T13:40:49.963Z,5.81
2019-02-11T13:42:56.270Z,5.67
2019-02-11T13:45:02.651Z,5.66
2019-02-11T13:47:09.079Z,5.70
2019-02-11T13:49:15.401Z,5.47
2019-02-11T13:51:21.941Z,5.48
2019-02-11T13:53:28.155Z,5.35
2019-02-11T13:55:34.397Z,5.30
2019-02-11T13:57:41.989Z,5.28
2019-02-11T13:59:48.270Z,5.19
2019-02-11T14:01:54.658Z,5.18
2019-02-11T14:04:00.935Z,5.11
2019-02-11T14:06:07.294Z,5.11
2019-02-11T14:08:13.742Z,5.12
2019-02-11T14:10:20.133Z,5.01
2019-02-11T14:12:26.359Z,5.12
2019-02-11T14:14:32.723Z,4.94
2019-02-11T14:16:39.094Z,4.94
2019-02-11T14:18:45.505Z,4.96
2019-02-11T14:20:51.678Z,4.89
2019-02-11T14:22:58.041Z,4.76
2019-02-11T14:25:04.986Z,4.72
2019-02-11T14:27:12.549Z,4.66
2019-02-11T14:29:18.908Z,4.64
2019-02-11T14:31:25.287Z,4.66
2019-02-11T14:33:31.747Z,4.64
2019-02-11T14:35:38.228Z,4.55
2019-02-11T14:37:44.683Z,4.57
2019-02-11T14:39:51.362Z,4.63
2019-02-11T14:41:57.950Z,4.58
2019-02-11T14:44:04.698Z,4.43
2019-02-11T14:46:11.380Z,4.40
2019-02-11T14:48:27.497Z,4.33
2019-02-11T14:50:26.321Z,4.31
2019-02-11T14:52:32.690Z,4.28
2019-02-11T14:54:40.674Z,4.35
2019-02-11T14:56:46.962Z,4.30
2019-02-11T14:58:53.437Z,4.26
2019-02-11T15:00:59.723Z,4.33
2019-02-11T15:03:05.979Z,4.20
2019-02-11T15:05:12.298Z,4.14
2019-02-11T15:07:19.090Z,4.16
2019-02-11T15:09:25.515Z,4.09
2019-02-11T15:11:31.834Z,4.29
2019-02-11T15:13:38.044Z,4.19
2019-02-11T15:15:45.698Z,4.20
2019-02-11T15:17:52.047Z,4.17
2019-02-11T15:19:59.890Z,4.10
2019-02-11T15:22:06.172Z,4.18
2019-02-11T15:24:12.672Z,4.18
2019-02-11T15:26:19.073Z,4.18
2019-02-11T15:28:25.406Z,4.24
2019-02-11T15:30:31.782Z,4.14
2019-02-11T15:32:38.184Z,4.14
2019-02-11T15:34:44.397Z,4.09
2019-02-11T15:36:50.788Z,4.06
2019-02-11T15:38:58.013Z,4.00
2019-02-11T15:41:04.234Z,3.97
2019-02-11T15:43:12.180Z,3.93
2019-02-11T15:45:18.526Z,3.92
2019-02-11T15:47:26.495Z,3.92
2019-02-11T15:49:32.839Z,3.94
2019-02-11T15:51:39.233Z,3.93
2019-02-11T15:53:45.678Z,3.90
2019-02-11T15:55:52.189Z,3.90
2019-02-11T18:15:28.454Z,20.01
2019-02-11T18:17:36.704Z,15.82
2019-02-11T18:19:43.980Z,13.13
2019-02-11T18:21:50.272Z,10.45
2019-02-11T18:23:56.632Z,8.86
2019-02-11T18:26:02.865Z,7.76
2019-02-11T18:28:09.328Z,6.69
2019-02-11T18:30:19.666Z,6.05
2019-02-11T18:32:26.087Z,5.64
2019-02-11T18:34:33.602Z,5.35
2019-02-11T18:36:40.033Z,5.08
2019-02-11T18:38:46.456Z,4.83
2019-02-11T18:40:54.075Z,4.73
2019-02-11T18:43:00.786Z,4.62
2019-02-11T18:45:15.138Z,4.54
2019-02-11T18:47:21.520Z,4.52
2019-02-11T18:49:34.365Z,4.55
2019-02-11T18:51:36.174Z,4.52
2019-02-11T18:53:42.622Z,4.50
2019-02-11T18:55:48.987Z,4.49
2019-02-11T18:57:55.344Z,4.46
2019-02-11T19:00:01.906Z,4.43
2019-02-11T19:02:09.725Z,4.44
2019-02-11T19:04:15.869Z,4.43
2019-02-11T19:06:22.290Z,4.43
2019-02-11T19:08:28.606Z,4.42
2019-02-11T19:10:37.481Z,4.40
2019-02-11T19:12:43.856Z,4.34
2019-02-11T19:14:50.309Z,4.37
2019-02-11T19:16:59.112Z,4.38
2019-02-11T19:19:05.651Z,4.38
2019-02-11T19:21:13.413Z,4.38
2019-02-11T19:23:21.329Z,4.38
2019-02-11T19:25:29.479Z,4.38
2019-02-11T19:27:35.715Z,4.37
2019-02-11T19:29:43.289Z,4.35
2019-02-11T19:31:51.563Z,4.35
2019-02-11T19:33:58.120Z,4.30
2019-02-11T19:36:04.540Z,4.30
2019-02-11T19:38:12.686Z,4.28
2019-02-11T19:40:20.545Z,4.29
2019-02-11T19:42:27.046Z,4.29
2019-02-11T19:44:33.430Z,4.30
2019-02-11T19:46:40.782Z,4.30
2019-02-11T19:48:47.218Z,4.32
2019-02-11T19:50:55.162Z,4.26
2019-02-11T19:53:03.123Z,4.27
2019-02-11T19:55:12.558Z,4.27
2019-02-11T19:57:18.955Z,4.27
2019-02-11T19:59:25.252Z,4.29
2019-02-11T20:01:33.144Z,4.29
2019-02-11T20:03:41.162Z,4.30
2019-02-11T20:05:47.602Z,4.32
2019-02-11T20:07:54.133Z,4.32
2019-02-11T20:10:02.323Z,4.29
2019-02-11T20:12:08.618Z,4.30
2019-02-11T20:14:15.040Z,4.33
2019-02-11T20:16:21.514Z,4.35
2019-02-11T20:18:27.940Z,4.36
2019-02-11T20:20:34.310Z,4.37
2019-02-11T20:22:40.782Z,4.38
2019-02-11T20:24:47.063Z,4.37
2019-02-11T20:26:55.465Z,4.34
2019-02-11T20:29:02.603Z,4.34
2019-02-11T20:31:09.033Z,4.32
2019-02-11T20:33:15.462Z,4.33
2019-02-11T20:35:22.618Z,4.32
2019-02-11T20:37:29.052Z,4.28
2019-02-11T20:39:36.962Z,4.26
2019-02-11T20:41:43.532Z,4.21
2019-02-11T20:43:49.826Z,4.23
2019-02-11T20:45:56.957Z,4.19
2019-02-11T20:48:04.978Z,4.18
2019-02-11T20:50:12.197Z,4.18
2019-02-11T20:52:18.658Z,4.11
2019-02-11T20:54:25.044Z,4.12
2019-02-11T20:56:34.536Z,4.12
2019-02-11T20:58:42.527Z,4.08
2019-02-11T21:00:48.775Z,4.00
2019-02-11T21:02:56.288Z,3.93
2019-02-11T21:05:04.412Z,3.88
2019-02-11T21:07:10.796Z,3.86
2019-02-11T21:09:18.635Z,3.84
2019-02-11T21:11:26.541Z,3.76
2019-02-11T21:13:33.195Z,3.72
2019-02-11T21:15:39.497Z,3.67
2019-02-11T21:17:45.785Z,3.62
2019-02-11T21:19:52.401Z,3.56
2019-02-11T21:21:58.680Z,3.51
2019-02-11T21:24:05.038Z,3.45
2019-02-11T21:26:13.075Z,3.43
2019-02-11T21:28:19.950Z,3.36
2019-02-11T21:30:31.195Z,3.33
2019-02-11T21:32:37.646Z,3.32
2019-02-11T21:34:47.196Z,3.27
2019-02-11T21:36:55.473Z,3.21
2019-02-11T21:39:01.787Z,3.18
2019-02-11T21:41:09.686Z,3.16
2019-02-11T21:43:18.850Z,3.13
2019-02-11T21:45:26.807Z,3.10
2019-02-11T21:47:33.158Z,3.13
2019-02-11T21:49:39.522Z,3.09
2019-02-11T21:51:45.922Z,3.02
2019-02-11T21:53:52.136Z,2.91
2019-02-11T21:55:58.495Z,2.91
2019-02-11T21:58:04.870Z,2.89
2019-02-11T22:00:18.548Z,2.89
2019-02-11T22:02:25.861Z,2.89
2019-02-11T22:04:32.163Z,2.84
2019-02-11T22:06:38.636Z,2.86
2019-02-11T22:08:44.922Z,2.84
2019-02-11T22:10:51.347Z,2.80
2019-02-11T22:12:57.691Z,2.77
2019-02-11T22:15:04.086Z,2.80
2019-02-11T22:17:10.538Z,2.83
2019-02-11T22:19:16.962Z,2.78
2019-02-11T22:21:23.385Z,2.80
2019-02-11T22:23:29.842Z,2.77
2019-02-11T22:25:36.412Z,2.73
2019-02-11T22:27:42.693Z,2.71
2019-02-11T22:29:49.167Z,2.69
2019-02-11T22:31:55.510Z,2.68
2019-02-11T22:34:01.872Z,2.68
2019-02-11T22:36:08.187Z,2.70
2019-02-11T22:38:14.559Z,2.66
2019-02-11T22:40:20.842Z,2.67
2019-02-11T22:42:27.220Z,2.70
2019-02-11T22:44:33.528Z,2.75
2019-02-11T22:46:39.897Z,2.75
2019-02-11T22:48:46.277Z,2.78
2019-02-11T22:50:52.609Z,2.79
2019-02-11T22:52:58.827Z,2.78
2019-02-11T22:55:07.432Z,2.79
2019-02-11T22:57:13.584Z,2.72
2019-02-11T22:59:19.798Z,2.78
2019-02-11T23:01:26.111Z,2.76
2019-02-11T23:03:32.887Z,2.79
2019-02-11T23:05:39.171Z,2.76
2019-02-11T23:07:45.500Z,2.79
2019-02-11T23:09:52.052Z,2.73
2019-02-11T23:11:58.400Z,2.73
2019-02-11T23:14:04.783Z,2.73
2019-02-11T23:16:10.991Z,2.75
2019-02-11T23:18:17.361Z,2.77
2019-02-11T23:20:23.603Z,2.75
2019-02-11T23:22:31.005Z,2.69
2019-02-11T23:24:37.472Z,2.70
2019-02-11T23:26:43.842Z,2.72
2019-02-11T23:28:50.125Z,2.73
2019-02-11T23:30:56.420Z,2.73
2019-02-11T23:33:02.707Z,2.78
2019-02-11T23:35:09.059Z,2.75
2019-02-11T23:37:15.273Z,2.72
2019-02-11T23:39:21.663Z,2.77
2019-02-11T23:41:28.003Z,2.80
2019-02-11T23:43:34.218Z,2.75
2019-02-11T23:45:40.746Z,2.77
2019-02-11T23:47:47.085Z,2.78
2019-02-11T23:49:53.571Z,2.70
2019-02-11T23:51:59.958Z,2.69
2019-02-11T23:54:06.409Z,2.66
2019-02-11T23:56:12.654Z,2.69
2019-02-11T23:58:19.020Z,2.69
